Time;durP1;ratioP1;P1;durP2;ratioP2;P2;SDS_P1;SDS_P2;PMS_P1;PMS_P2;Temp;Humidity;BMP_temperature;BMP_pressure;BME280_temperature;BME280_humidity;BME280_pressure;Samples;Min_cycle;Max_cycle;Signal;HPM_P1;HPM_P2
2021/01/02 00:01:21;;;;;;;17.83;10.90;;;22.00;54.90;;;;;;5073666;28;45381;-47
2021/01/02 00:04:13;;;;;;;17.23;10.48;;;22.00;54.80;;;;;;5073803;28;45537;-48
2021/01/02 00:07:03;;;;;;;14.63;9.02;;;22.00;54.90;;;;;;5091732;28;45275;-47
2021/01/02 00:09:28;;;;;;;14.30;9.57;;;22.00;54.80;;;;;;5078601;27;47243;-48
2021/01/02 00:12:09;;;;;;;18.35;10.52;;;22.00;54.80;;;;;;5053254;28;45254;-48
2021/01/02 00:14:59;;;;;;;16.23;10.02;;;22.00;54.70;;;;;;5069551;27;45310;-47
2021/01/02 00:17:46;;;;;;;14.80;10.15;;;22.00;54.70;;;;;;5071517;28;45509;-47
2021/01/02 00:20:21;;;;;;;15.13;10.27;;;22.00;54.70;;;;;;5071063;28;46470;-47
2021/01/02 00:22:54;;;;;;;14.82;9.43;;;22.00;54.70;;;;;;5071196;28;45348;-47
2021/01/02 00:25:24;;;;;;;13.27;9.45;;;22.00;54.60;;;;;;5053043;28;45301;-48
2021/01/02 00:28:09;;;;;;;15.57;9.20;;;22.00;54.60;;;;;;5053463;28;45295;-47
2021/01/02 00:30:59;;;;;;;14.02;9.50;;;22.00;54.60;;;;;;5070523;28;46157;-48
2021/01/02 00:33:43;;;;;;;14.07;9.73;;;21.90;54.60;;;;;;5071061;28;45283;-48
2021/01/02 00:36:17;;;;;;;15.07;10.55;;;21.90;54.50;;;;;;5071082;28;45348;-54
2021/01/02 00:38:42;;;;;;;15.55;9.70;;;21.90;54.50;;;;;;5070077;28;45491;-48
2021/01/02 00:41:08;;;;;;;18.15;10.60;;;21.90;54.50;;;;;;5069702;28;46020;-49
2021/01/02 00:43:34;;;;;;;15.63;9.75;;;21.90;54.50;;;;;;5058515;28;45352;-48
2021/01/02 00:45:59;;;;;;;14.88;9.02;;;21.90;54.50;;;;;;5072973;28;45314;-49
2021/01/02 00:48:25;;;;;;;13.77;9.35;;;21.90;54.50;;;;;;5073443;28;45362;-49
2021/01/02 00:50:51;;;;;;;14.88;9.80;;;21.80;54.40;;;;;;5072891;28;46568;-48
2021/01/02 00:53:56;;;;;;;13.80;9.68;;;21.80;54.40;;;;;;5072766;28;45237;-49
2021/01/02 00:56:28;;;;;;;14.15;9.13;;;21.90;54.30;;;;;;5067781;28;45438;-47
2021/01/02 00:58:53;;;;;;;14.82;10.00;;;21.80;54.40;;;;;;5068956;28;45457;-48
2021/01/02 01:01:20;;;;;;;13.75;8.35;;;21.80;54.30;;;;;;5078025;27;46162;-48
2021/01/02 01:03:54;;;;;;;14.65;9.70;;;21.80;54.30;;;;;;5072560;28;45358;-46
2021/01/02 01:06:21;;;;;;;13.70;9.80;;;21.80;54.30;;;;;;5075732;27;45307;-47
2021/01/02 01:08:47;;;;;;;16.10;10.02;;;21.80;54.30;;;;;;5051821;27;45260;-47
2021/01/02 01:11:13;;;;;;;12.38;9.00;;;21.80;54.30;;;;;;5051954;28;45427;-47
2021/01/02 01:13:39;;;;;;;11.98;8.57;;;21.80;54.30;;;;;;5053645;28;45375;-46
2021/01/02 01:16:04;;;;;;;14.80;9.13;;;21.80;54.30;;;;;;5068916;28;45344;-49
2021/01/02 01:18:51;;;;;;;15.88;9.88;;;21.70;54.20;;;;;;5069111;28;45346;-47
2021/01/02 01:21:17;;;;;;;13.10;8.80;;;21.80;54.20;;;;;;5070009;28;46576;-47
2021/01/02 01:24:08;;;;;;;15.95;10.18;;;21.70;54.20;;;;;;5085569;28;45564;-47
2021/01/02 01:26:46;;;;;;;14.45;9.80;;;21.70;54.10;;;;;;5070005;28;45330;-46
2021/01/02 01:29:17;;;;;;;16.10;10.02;;;21.70;54.10;;;;;;5070519;28;45330;-46
2021/01/02 01:31:44;;;;;;;13.60;9.30;;;21.70;54.10;;;;;;5085476;28;46478;-46
2021/01/02 01:34:11;;;;;;;12.77;9.18;;;21.70;54.10;;;;;;5085238;28;45375;-46
2021/01/02 01:36:36;;;;;;;15.45;9.13;;;21.70;54.00;;;;;;5068595;28;45315;-47
2021/01/02 01:39:05;;;;;;;12.55;9.00;;;21.70;54.00;;;;;;5069131;28;45285;-47
2021/01/02 01:41:37;;;;;;;13.15;9.50;;;21.70;54.00;;;;;;5084970;28;45359;-48
2021/01/02 01:44:09;;;;;;;13.85;8.98;;;21.70;54.00;;;;;;5088770;28;45450;-48
2021/01/02 01:46:35;;;;;;;13.18;9.27;;;21.70;54.00;;;;;;5090146;27;45290;-47
2021/01/02 01:49:11;;;;;;;12.43;9.18;;;21.60;53.90;;;;;;5072212;28;45629;-49
2021/01/02 01:52:02;;;;;;;12.13;8.25;;;21.60;53.90;;;;;;5072864;28;46565;-47
2021/01/02 01:54:50;;;;;;;12.32;8.82;;;21.70;53.80;;;;;;5088594;28;45311;-46
2021/01/02 01:57:24;;;;;;;11.95;9.02;;;21.60;53.80;;;;;;5089782;27;45265;-47
2021/01/02 01:59:58;;;;;;;14.18;8.75;;;21.60;53.80;;;;;;5089241;28;45570;-46
2021/01/02 02:02:45;;;;;;;13.35;9.15;;;21.60;53.80;;;;;;5088743;27;47097;-46
2021/01/02 02:05:14;;;;;;;11.52;9.02;;;21.60;53.70;;;;;;5086830;27;45453;-46
2021/01/02 02:07:47;;;;;;;14.48;9.45;;;21.60;53.80;;;;;;5089858;27;45288;-48
2021/01/02 02:10:30;;;;;;;14.02;8.52;;;21.60;53.70;;;;;;5071947;28;45351;-46
2021/01/02 02:13:09;;;;;;;13.40;9.13;;;21.60;53.70;;;;;;5073116;28;46281;-46
2021/01/02 02:15:34;;;;;;;12.15;8.63;;;21.60;53.70;;;;;;5069287;28;45255;-47
2021/01/02 02:18:07;;;;;;;12.95;8.85;;;21.50;53.70;;;;;;5051443;28;45323;-46
2021/01/02 02:20:33;;;;;;;14.20;9.63;;;21.60;53.70;;;;;;5068348;28;45357;-47
2021/01/02 02:23:08;;;;;;;10.98;7.93;;;21.50;53.60;;;;;;5050567;28;45604;-48
2021/01/02 02:25:44;;;;;;;;;;;21.60;53.60;;;;;;5069843;28;45347;-48
2021/01/02 02:28:11;;;;;;;10.85;7.45;;;21.50;53.50;;;;;;5069395;28;45205;-47
2021/01/02 02:30:37;;;;;;;10.93;7.72;;;21.50;53.60;;;;;;5051611;28;45486;-48
2021/01/02 02:33:04;;;;;;;13.35;8.98;;;21.50;53.60;;;;;;5051115;28;45960;-47
2021/01/02 02:35:29;;;;;;;12.82;8.68;;;21.50;53.50;;;;;;5051227;28;45303;-47
2021/01/02 02:37:55;;;;;;;12.90;8.50;;;21.50;53.50;;;;;;5051024;28;45327;-47
2021/01/02 02:40:21;;;;;;;14.07;8.02;;;21.50;53.50;;;;;;5051496;28;45300;-48
2021/01/02 02:42:54;;;;;;;12.00;7.88;;;21.50;53.50;;;;;;5050734;28;46044;-46
2021/01/02 02:45:20;;;;;;;11.90;8.60;;;21.50;53.50;;;;;;5068514;28;45699;-47
2021/01/02 02:47:46;;;;;;;13.65;8.80;;;21.50;53.40;;;;;;5050903;28;45295;-48
2021/01/02 02:50:18;;;;;;;10.98;8.05;;;21.50;53.40;;;;;;5051544;28;45297;-47
2021/01/02 02:52:45;;;;;;;11.93;8.80;;;21.50;53.40;;;;;;5067273;28;46911;-47
2021/01/02 02:55:11;;;;;;;10.73;8.35;;;21.50;53.40;;;;;;5069529;27;45644;-47
2021/01/02 02:57:41;;;;;;;11.52;8.15;;;21.50;53.40;;;;;;5054410;28;45304;-47
2021/01/02 03:00:07;;;;;;;11.57;7.80;;;21.40;53.30;;;;;;5070717;28;45410;-46
2021/01/02 03:02:33;;;;;;;11.73;8.63;;;21.40;53.30;;;;;;5066158;28;46593;-46
2021/01/02 03:05:03;;;;;;;10.57;7.90;;;21.40;53.30;;;;;;5049986;28;45387;-47
2021/01/02 03:07:28;;;;;;;12.50;8.73;;;21.40;53.20;;;;;;5051104;28;45150;-46
2021/01/02 03:09:54;;;;;;;14.35;9.23;;;21.40;53.20;;;;;;5049962;28;45552;-47
2021/01/02 03:12:19;;;;;;;12.02;7.88;;;21.40;53.20;;;;;;5067035;28;47292;-47
2021/01/02 03:14:45;;;;;;;11.57;7.82;;;21.50;52.90;;;;;;5081259;27;45201;-47
2021/01/02 03:17:11;;;;;;;11.00;7.60;;;21.60;52.70;;;;;;5084428;27;45277;-47
2021/01/02 03:19:36;;;;;;;10.38;7.93;;;21.60;52.50;;;;;;5050431;28;45458;-47
2021/01/02 03:22:02;;;;;;;11.23;7.68;;;21.60;52.30;;;;;;5074912;27;46308;-47
2021/01/02 03:24:27;;;;;;;14.65;9.52;;;21.70;52.20;;;;;;5086783;28;45533;-46
2021/01/02 03:26:53;;;;;;;10.50;8.05;;;21.70;52.10;;;;;;5088292;27;45469;-48
2021/01/02 03:29:19;;;;;;;12.18;8.50;;;21.70;52.10;;;;;;5070906;28;45734;-47
2021/01/02 03:31:44;;;;;;;10.63;7.90;;;21.70;52.10;;;;;;5069593;28;47031;-47
2021/01/02 03:34:10;;;;;;;10.02;7.93;;;21.80;52.10;;;;;;5080379;28;45368;-48
2021/01/02 03:36:36;;;;;;;11.27;8.05;;;21.80;52.10;;;;;;5066870;28;45394;-47
2021/01/02 03:39:01;;;;;;;11.32;7.60;;;21.90;52.00;;;;;;5067216;28;45332;-47
2021/01/02 03:41:27;;;;;;;11.45;8.65;;;22.00;51.80;;;;;;5066244;28;45366;-47
2021/01/02 03:43:53;;;;;;;11.45;7.43;;;22.00;51.70;;;;;;5058188;28;45348;-47
2021/01/02 03:46:19;;;;;;;12.13;7.50;;;22.00;51.60;;;;;;5070141;28;45200;-47
2021/01/02 03:48:45;;;;;;;9.23;7.50;;;22.00;51.50;;;;;;5087422;28;45657;-46
2021/01/02 03:51:11;;;;;;;10.70;7.68;;;22.10;51.50;;;;;;5070117;28;45251;-47
2021/01/02 03:53:36;;;;;;;12.27;9.00;;;22.10;51.40;;;;;;5069815;28;45439;-47
2021/01/02 03:56:02;;;;;;;11.82;8.07;;;22.10;51.60;;;;;;5070140;28;45451;-47
2021/01/02 03:58:28;;;;;;;9.57;7.35;;;22.20;51.60;;;;;;5070354;28;45519;-47
2021/01/02 04:00:54;;;;;;;11.15;7.55;;;22.20;51.40;;;;;;5084353;27;45750;-47
2021/01/02 04:03:19;;;;;;;10.65;7.47;;;22.20;51.30;;;;;;5069904;28;45314;-47
2021/01/02 04:05:46;;;;;;;12.40;7.78;;;22.20;51.20;;;;;;5076362;27;45327;-47
2021/01/02 04:08:11;;;;;;;9.13;7.15;;;22.30;51.20;;;;;;5050380;28;45320;-47
2021/01/02 04:10:37;;;;;;;10.07;7.05;;;22.30;51.10;;;;;;5061038;28;47101;-47
2021/01/02 04:13:03;;;;;;;9.15;7.18;;;22.30;51.00;;;;;;5068399;27;45333;-48
2021/01/02 04:15:29;;;;;;;9.25;6.72;;;22.30;50.90;;;;;;5047778;28;45370;-46
2021/01/02 04:17:54;;;;;;;10.48;7.40;;;22.40;50.90;;;;;;5054163;28;45676;-47
2021/01/02 04:20:21;;;;;;;11.27;7.45;;;22.40;50.80;;;;;;5068585;28;46687;-48
2021/01/02 04:22:46;;;;;;;9.15;7.00;;;22.40;50.70;;;;;;5069447;28;45378;-48
2021/01/02 04:25:12;;;;;;;9.50;6.53;;;22.40;50.70;;;;;;5069088;28;45439;-48
2021/01/02 04:27:38;;;;;;;9.90;7.68;;;22.40;50.60;;;;;;5067945;28;45397;-48
2021/01/02 04:30:04;;;;;;;9.20;6.70;;;22.40;50.60;;;;;;5067576;28;45382;-47
2021/01/02 04:32:30;;;;;;;10.85;7.05;;;22.50;50.50;;;;;;5068430;28;45751;-48
2021/01/02 04:34:55;;;;;;;9.73;7.40;;;22.50;50.50;;;;;;5068699;28;45385;-48
2021/01/02 04:37:30;;;;;;;9.98;7.30;;;22.50;50.40;;;;;;5069213;28;45349;-48
2021/01/02 04:39:56;;;;;;;11.90;7.75;;;22.60;50.30;;;;;;5069374;28;46220;-48
2021/01/02 04:42:22;;;;;;;11.20;7.32;;;22.60;50.40;;;;;;5069420;27;45399;-48
2021/01/02 04:44:51;;;;;;;9.60;6.65;;;22.60;50.30;;;;;;5072238;28;45261;-47
2021/01/02 04:47:18;;;;;;;9.38;6.95;;;22.60;50.30;;;;;;5090267;28;45597;-48
2021/01/02 04:49:44;;;;;;;10.48;7.07;;;22.60;50.20;;;;;;5089609;28;46511;-48
2021/01/02 04:52:10;;;;;;;9.45;6.90;;;22.60;50.20;;;;;;5073054;28;45456;-52
2021/01/02 04:54:35;;;;;;;9.20;6.93;;;22.60;50.20;;;;;;5072781;28;45367;-48
2021/01/02 04:57:01;;;;;;;9.93;7.03;;;22.60;50.10;;;;;;5073504;28;45501;-47
2021/01/02 04:59:27;;;;;;;10.50;6.60;;;22.70;50.10;;;;;;5072799;28;46175;-46
2021/01/02 05:01:53;;;;;;;9.90;7.47;;;22.70;50.00;;;;;;5064428;28;45451;-48
2021/01/02 05:04:19;;;;;;;8.45;6.50;;;22.70;50.00;;;;;;5052596;28;45261;-47
2021/01/02 05:06:45;;;;;;;10.20;6.85;;;22.70;50.00;;;;;;5087187;27;45153;-48
2021/01/02 05:09:11;;;;;;;12.75;7.63;;;22.70;49.90;;;;;;5068758;27;45260;-47
2021/01/02 05:11:37;;;;;;;10.27;6.68;;;22.70;49.90;;;;;;5052001;28;45320;-48
2021/01/02 05:14:03;;;;;;;9.63;7.25;;;22.70;49.90;;;;;;5052315;28;45422;-48
2021/01/02 05:16:39;;;;;;;8.93;6.28;;;22.70;49.80;;;;;;5052764;28;45338;-52
2021/01/02 05:19:12;;;;;;;11.25;6.88;;;22.70;49.80;;;;;;5068390;28;45375;-48
2021/01/02 05:21:43;;;;;;;9.80;6.72;;;22.70;49.70;;;;;;5070471;28;45162;-52
2021/01/02 05:24:15;;;;;;;10.68;7.40;;;22.70;49.70;;;;;;5068821;28;45352;-47
2021/01/02 05:26:56;;;;;;;8.68;6.53;;;22.80;49.70;;;;;;5069219;28;45387;-51
2021/01/02 05:29:26;;;;;;;9.90;6.68;;;22.80;49.60;;;;;;5068753;28;46181;-50
2021/01/02 05:31:56;;;;;;;8.57;6.90;;;22.90;49.70;;;;;;5052448;28;45368;-50
2021/01/02 05:34:23;;;;;;;9.23;6.22;;;22.90;49.60;;;;;;5068544;28;45440;-49
2021/01/02 05:37:08;;;;;;;9.15;7.15;;;22.90;49.60;;;;;;5069103;28;45543;-48
2021/01/02 05:39:49;;;;;;;9.73;7.25;;;23.00;49.40;;;;;;5068506;28;46322;-47
2021/01/02 05:42:15;;;;;;;8.98;5.63;;;23.00;49.40;;;;;;5068187;28;45208;-47
2021/01/02 05:44:40;;;;;;;9.38;6.75;;;23.10;49.50;;;;;;5066893;28;45225;-47
2021/01/02 05:47:06;;;;;;;8.98;6.40;;;23.10;49.40;;;;;;5072618;28;45491;-47
2021/01/02 05:49:34;;;;;;;9.30;6.88;;;23.10;49.40;;;;;;5071659;28;46188;-48
2021/01/02 05:52:02;;;;;;;8.13;6.20;;;23.10;49.30;;;;;;5088585;28;45324;-48
2021/01/02 05:54:29;;;;;;;8.18;6.50;;;23.10;49.30;;;;;;5089638;27;45334;-47
2021/01/02 05:56:56;;;;;;;9.20;6.40;;;23.20;49.30;;;;;;5072425;28;45664;-49
2021/01/02 05:59:29;;;;;;;8.90;6.57;;;23.20;49.20;;;;;;5071669;28;46130;-47
2021/01/02 06:01:54;;;;;;;8.05;5.53;;;23.20;49.20;;;;;;5088744;27;45275;-47
2021/01/02 06:04:20;;;;;;;8.35;5.63;;;23.20;49.20;;;;;;5071901;28;45300;-47
2021/01/02 06:06:46;;;;;;;8.68;6.20;;;23.20;49.20;;;;;;5071436;28;45160;-47
2021/01/02 06:09:12;;;;;;;8.57;6.18;;;23.20;49.10;;;;;;5084654;27;45177;-47
2021/01/02 06:11:37;;;;;;;8.00;5.78;;;23.30;49.10;;;;;;5068005;28;45287;-46
2021/01/02 06:14:03;;;;;;;8.45;5.72;;;23.20;49.00;;;;;;5076950;27;45279;-46
2021/01/02 06:16:29;;;;;;;8.38;5.93;;;23.30;49.10;;;;;;5072341;28;45318;-47
2021/01/02 06:18:54;;;;;;;7.65;5.40;;;23.30;49.00;;;;;;5055702;28;45618;-50
2021/01/02 06:21:20;;;;;;;7.05;5.63;;;23.30;49.00;;;;;;5050797;27;45380;-46
2021/01/02 06:23:47;;;;;;;8.70;6.00;;;23.40;49.00;;;;;;5067375;28;45367;-48
2021/01/02 06:26:14;;;;;;;7.38;5.63;;;23.40;48.90;;;;;;5068309;28;45346;-47
2021/01/02 06:28:41;;;;;;;8.10;6.35;;;23.40;49.50;;;;;;5067878;28;46190;-47
2021/01/02 06:31:14;;;;;;;7.55;5.63;;;23.40;48.90;;;;;;5067496;28;45195;-48
2021/01/02 06:33:47;;;;;;;7.95;4.88;;;23.50;48.90;;;;;;5068123;28;45469;-47
2021/01/02 06:36:35;;;;;;;7.18;5.10;;;23.50;48.80;;;;;;5068273;28;45410;-48
2021/01/02 06:39:34;;;;;;;8.35;5.55;;;23.50;48.70;;;;;;5067847;28;46053;-48
2021/01/02 06:42:01;;;;;;;8.30;5.72;;;23.50;48.70;;;;;;5066008;28;45267;-48
2021/01/02 06:44:43;;;;;;;6.97;5.10;;;23.50;48.80;;;;;;5080072;28;45439;-48
2021/01/02 06:47:32;;;;;;;6.63;5.05;;;23.60;48.70;;;;;;5053735;28;45327;-48
2021/01/02 06:49:58;;;;;;;6.53;5.03;;;23.60;48.60;;;;;;5064650;28;45304;-47
2021/01/02 06:52:34;;;;;;;6.47;4.93;;;23.60;48.60;;;;;;5052870;28;45385;-48
2021/01/02 06:55:32;;;;;;;5.97;4.47;;;23.70;48.60;;;;;;5069647;28;45797;-47
2021/01/02 06:58:17;;;;;;;7.00;5.03;;;23.70;48.40;;;;;;5047608;28;45644;-47
2021/01/02 07:00:42;;;;;;;;;;;23.70;48.40;;;;;;5069124;27;45665;-48
2021/01/02 07:03:39;;;;;;;8.68;5.15;;;23.70;48.50;;;;;;5069424;28;45380;-48
2021/01/02 07:06:23;;;;;;;6.68;4.82;;;23.70;48.50;;;;;;5085212;27;45329;-48
2021/01/02 07:08:59;;;;;;;7.23;4.93;;;23.70;48.40;;;;;;5070236;28;45547;-49
2021/01/02 07:11:36;;;;;;;7.25;5.45;;;23.70;48.50;;;;;;5069756;28;47080;-49
2021/01/02 07:14:11;;;;;;;7.30;5.65;;;23.70;48.50;;;;;;5085567;28;45541;-48
2021/01/02 07:17:05;;;;;;;6.30;4.57;;;23.80;48.40;;;;;;5088904;27;45337;-49
2021/01/02 07:19:34;;;;;;;7.28;5.03;;;23.80;48.40;;;;;;5087707;28;45256;-48
2021/01/02 07:22:16;;;;;;;8.85;4.63;;;23.80;48.40;;;;;;5086380;28;45433;-48
2021/01/02 07:24:45;;;;;;;6.68;5.22;;;23.80;48.30;;;;;;5076537;27;45647;-48
2021/01/02 07:27:15;;;;;;;7.40;6.05;;;23.80;48.30;;;;;;5085093;28;45296;-48
2021/01/02 07:29:41;;;;;;;7.53;5.35;;;23.90;48.30;;;;;;5084477;28;45610;-47
2021/01/02 07:32:12;;;;;;;8.25;5.40;;;23.90;48.30;;;;;;5085470;28;46148;-49
2021/01/02 07:34:41;;;;;;;7.53;5.05;;;23.90;48.20;;;;;;5086607;28;45326;-49
2021/01/02 07:37:12;;;;;;;7.60;4.55;;;23.90;48.20;;;;;;5070791;28;45523;-47
2021/01/02 07:39:37;;;;;;;6.07;4.45;;;23.90;48.20;;;;;;5087625;28;45289;-48
2021/01/02 07:42:05;;;;;;;6.72;4.60;;;23.80;48.30;;;;;;5069578;28;46186;-47
2021/01/02 07:44:31;;;;;;;7.63;5.38;;;23.90;48.30;;;;;;5079466;27;45851;-47
2021/01/02 07:46:56;;;;;;;7.60;5.45;;;23.80;48.20;;;;;;5061231;28;45651;-47
2021/01/02 07:49:22;;;;;;;6.18;4.55;;;23.80;48.10;;;;;;5082684;28;45597;-47
2021/01/02 07:51:48;;;;;;;8.15;4.90;;;23.80;48.10;;;;;;5060982;28;46951;-47
2021/01/02 07:54:27;;;;;;;6.70;5.10;;;23.90;48.10;;;;;;5067897;28;45352;-47
2021/01/02 07:56:53;;;;;;;6.15;4.78;;;23.90;48.00;;;;;;5083081;28;45542;-47
2021/01/02 07:59:38;;;;;;;5.90;4.55;;;23.90;48.00;;;;;;5067768;28;45627;-47
2021/01/02 08:02:10;;;;;;;6.30;4.90;;;23.90;47.90;;;;;;5081029;27;46552;-47
2021/01/02 08:04:36;;;;;;;6.80;4.47;;;23.90;48.00;;;;;;5085177;27;45543;-48
2021/01/02 08:07:05;;;;;;;7.53;5.28;;;23.90;48.00;;;;;;5065463;28;45438;-47
2021/01/02 08:09:32;;;;;;;7.10;4.65;;;23.90;47.90;;;;;;5068193;28;45523;-47
2021/01/02 08:12:04;;;;;;;5.43;4.20;;;23.90;48.00;;;;;;5066352;27;46107;-47
2021/01/02 08:14:31;;;;;;;6.53;5.10;;;23.90;47.90;;;;;;5084433;28;45780;-47
2021/01/02 08:16:58;;;;;;;7.43;4.90;;;23.90;47.90;;;;;;5082346;27;45582;-46
2021/01/02 08:19:24;;;;;;;6.60;4.63;;;24.00;47.90;;;;;;5086400;28;45260;-47
2021/01/02 08:21:50;;;;;;;5.55;4.03;;;24.00;47.90;;;;;;5087796;27;45514;-47
2021/01/02 08:24:17;;;;;;;6.43;4.50;;;24.00;47.80;;;;;;5071197;28;45584;-46
2021/01/02 08:26:43;;;;;;;7.07;4.78;;;24.00;47.80;;;;;;5086023;27;45274;-46
2021/01/02 08:29:08;;;;;;;7.47;4.22;;;24.10;47.90;;;;;;5072304;28;45556;-47
2021/01/02 08:31:34;;;;;;;6.43;4.95;;;24.00;47.70;;;;;;5066073;28;45996;-46
2021/01/02 08:34:00;;;;;;;8.45;4.90;;;24.00;47.80;;;;;;5067903;28;45333;-45
2021/01/02 08:36:26;;;;;;;10.65;5.20;;;24.00;47.70;;;;;;5071933;28;45383;-45
2021/01/02 08:38:58;;;;;;;11.18;7.10;;;23.90;47.30;;;;;;5071599;28;45589;-45
2021/01/02 08:41:23;;;;;;;9.80;6.28;;;23.90;46.80;;;;;;5085662;28;47175;-45
2021/01/02 08:43:49;;;;;;;8.48;6.05;;;23.90;46.40;;;;;;5070945;28;45449;-46
2021/01/02 08:46:22;;;;;;;9.05;5.40;;;23.90;46.40;;;;;;5071372;28;45470;-45
2021/01/02 08:48:48;;;;;;;9.90;5.60;;;23.90;46.80;;;;;;5069629;28;45294;-46
2021/01/02 08:51:26;;;;;;;8.40;5.55;;;23.90;46.90;;;;;;5068638;28;46151;-46
2021/01/02 08:53:52;;;;;;;10.82;6.00;;;23.80;46.90;;;;;;5082744;27;45547;-45
2021/01/02 08:56:27;;;;;;;11.63;6.45;;;23.80;47.20;;;;;;5066583;28;46837;-45
2021/01/02 08:58:54;;;;;;;10.35;5.20;;;23.80;47.10;;;;;;5092305;27;45536;-46
2021/01/02 09:01:19;;;;;;;7.85;5.15;;;23.80;47.30;;;;;;5084588;27;45414;-46
2021/01/02 09:03:45;;;;;;;9.90;7.18;;;23.80;47.40;;;;;;5065712;28;45398;-45
2021/01/02 09:06:21;;;;;;;13.27;8.10;;;23.50;42.70;;;;;;5086148;27;45728;-45
2021/01/02 09:09:07;;;;;;;11.77;7.03;;;22.80;38.70;;;;;;5082831;28;45343;-46
2021/01/02 09:11:51;;;;;;;13.00;7.28;;;22.80;40.40;;;;;;5110710;27;46279;-46
2021/01/02 09:14:17;;;;;;;11.88;7.72;;;22.90;42.40;;;;;;5066923;28;45540;-46
2021/01/02 09:17:07;;;;;;;10.18;6.55;;;22.90;42.90;;;;;;5052357;28;45292;-46
2021/01/02 09:19:33;;;;;;;13.57;7.43;;;23.00;42.40;;;;;;5069092;28;45435;-45
2021/01/02 09:21:59;;;;;;;12.00;6.18;;;22.90;42.80;;;;;;5052077;28;47079;-46
2021/01/02 09:24:24;;;;;;;10.75;6.72;;;23.00;42.90;;;;;;5052783;28;45251;-46
2021/01/02 09:26:50;;;;;;;9.35;6.75;;;22.90;42.10;;;;;;5071297;28;45603;-46
2021/01/02 09:29:16;;;;;;;10.48;7.40;;;22.90;41.60;;;;;;5089130;27;45530;-46
2021/01/02 09:31:42;;;;;;;11.13;6.78;;;22.90;41.50;;;;;;5072227;28;45610;-46
2021/01/02 09:34:08;;;;;;;9.80;6.45;;;23.00;42.20;;;;;;5072066;28;45304;-46
2021/01/02 09:36:34;;;;;;;14.82;6.55;;;22.90;43.30;;;;;;5087308;27;45512;-46
2021/01/02 09:39:00;;;;;;;12.02;6.32;;;22.90;43.80;;;;;;5072565;28;45364;-46
2021/01/02 09:41:26;;;;;;;12.40;7.15;;;22.90;43.90;;;;;;5071881;28;46484;-46
2021/01/02 09:43:55;;;;;;;10.18;5.93;;;23.00;44.00;;;;;;5063487;28;45325;-46
2021/01/02 09:46:26;;;;;;;15.93;7.85;;;23.10;44.20;;;;;;5053081;28;45335;-46
2021/01/02 09:48:53;;;;;;;26.63;7.68;;;22.50;41.40;;;;;;5089296;28;45460;-46
2021/01/02 09:51:19;;;;;;;23.27;6.30;;;22.60;42.70;;;;;;5088597;28;45327;-46
2021/01/02 09:53:45;;;;;;;26.58;8.15;;;22.80;42.80;;;;;;5089678;27;45203;-46
2021/01/02 09:56:11;;;;;;;23.38;6.60;;;22.80;43.10;;;;;;5072025;28;45321;-46
2021/01/02 09:58:37;;;;;;;30.95;7.32;;;22.80;42.80;;;;;;5072026;28;45548;-46
2021/01/02 10:01:03;;;;;;;24.08;7.35;;;22.80;42.70;;;;;;5088765;28;46092;-46
2021/01/02 10:03:29;;;;;;;32.55;8.65;;;22.80;42.40;;;;;;5070850;28;45364;-46
2021/01/02 10:05:54;;;;;;;27.80;8.32;;;22.70;41.40;;;;;;5060684;28;45495;-46
2021/01/02 10:08:20;;;;;;;29.20;7.45;;;22.70;41.40;;;;;;5088913;28;45363;-46
2021/01/02 10:10:46;;;;;;;20.38;6.93;;;22.70;42.00;;;;;;5071736;28;45319;-46
2021/01/02 10:13:11;;;;;;;22.60;6.22;;;22.80;42.60;;;;;;5071364;28;45469;-46
2021/01/02 10:15:37;;;;;;;32.67;7.22;;;22.90;42.90;;;;;;5087884;28;45311;-46
2021/01/02 10:18:03;;;;;;;23.25;7.10;;;23.00;43.10;;;;;;5088772;28;45542;-48
2021/01/02 10:20:29;;;;;;;20.58;5.45;;;23.00;43.10;;;;;;5082817;28;46071;-58
2021/01/02 10:22:54;;;;;;;16.90;6.07;;;23.10;43.50;;;;;;5070072;28;45414;-49
2021/01/02 10:25:20;;;;;;;28.13;6.30;;;23.10;43.30;;;;;;5070449;28;45274;-46
2021/01/02 10:27:46;;;;;;;15.73;6.82;;;23.10;43.60;;;;;;5088961;28;45238;-46
2021/01/02 10:30:12;;;;;;;15.98;4.85;;;23.10;44.10;;;;;;5087646;28;46279;-46
2021/01/02 10:32:38;;;;;;;18.63;5.65;;;23.10;44.90;;;;;;5071157;28;45307;-46
2021/01/02 10:35:05;;;;;;;13.82;6.43;;;23.10;44.20;;;;;;5071021;28;45311;-46
2021/01/02 10:37:31;;;;;;;10.20;5.90;;;23.00;43.10;;;;;;5089562;27;45591;-46
2021/01/02 10:39:57;;;;;;;9.13;6.00;;;22.90;42.70;;;;;;5070254;27;46051;-45
2021/01/02 10:42:27;;;;;;;12.05;6.22;;;22.90;42.10;;;;;;5069940;28;45633;-45
2021/01/02 10:44:53;;;;;;;9.60;5.55;;;22.80;41.70;;;;;;5087998;28;45294;-45
2021/01/02 10:47:21;;;;;;;12.30;5.22;;;22.80;42.50;;;;;;5071225;28;45598;-48
2021/01/02 10:49:47;;;;;;;12.25;6.20;;;22.90;43.00;;;;;;5087542;28;46124;-44
2021/01/02 10:52:14;;;;;;;9.90;5.15;;;23.00;43.20;;;;;;5070736;28;45454;-45
2021/01/02 10:54:42;;;;;;;8.32;4.40;;;23.10;43.40;;;;;;5081997;27;45192;-45
2021/01/02 10:57:08;;;;;;;9.27;4.68;;;23.10;43.50;;;;;;5062162;28;45406;-45
2021/01/02 10:59:33;;;;;;;7.18;4.70;;;23.20;43.50;;;;;;5066596;28;46229;-45
2021/01/02 11:01:59;;;;;;;8.15;4.15;;;23.20;43.60;;;;;;5068700;28;45327;-44
2021/01/02 11:04:26;;;;;;;10.10;5.20;;;23.20;43.70;;;;;;5063785;28;45370;-45
2021/01/02 11:06:52;;;;;;;9.48;4.53;;;23.20;43.70;;;;;;5065627;28;45349;-44
2021/01/02 11:09:18;;;;;;;7.47;4.55;;;23.20;43.70;;;;;;5055015;28;45323;-45
2021/01/02 11:11:44;;;;;;;7.82;4.38;;;23.20;44.00;;;;;;5066876;27;45371;-45
2021/01/02 11:14:10;;;;;;;7.68;4.25;;;23.20;44.00;;;;;;5085249;27;45290;-46
2021/01/02 11:16:41;;;;;;;7.65;4.10;;;23.20;44.10;;;;;;5076258;27;45314;-47
2021/01/02 11:19:25;;;;;;;8.90;3.88;;;23.40;44.20;;;;;;5069485;28;47394;-46
2021/01/02 11:21:52;;;;;;;8.25;3.97;;;23.40;44.50;;;;;;5086818;27;45660;-47
2021/01/02 11:24:20;;;;;;;8.82;3.88;;;23.40;44.50;;;;;;5095831;27;45532;-47
2021/01/02 11:26:49;;;;;;;8.38;4.13;;;23.50;44.60;;;;;;5074729;27;45493;-48
2021/01/02 11:29:15;;;;;;;8.18;4.05;;;23.50;44.60;;;;;;5069389;28;45500;-45
2021/01/02 11:31:41;;;;;;;8.60;4.13;;;23.60;44.70;;;;;;5062545;28;45347;-47
2021/01/02 11:34:07;;;;;;;7.82;4.28;;;23.70;44.90;;;;;;5085647;27;45361;-46
2021/01/02 11:36:32;;;;;;;9.98;3.60;;;23.60;44.90;;;;;;5069631;28;45378;-46
2021/01/02 11:38:59;;;;;;;10.85;3.78;;;23.60;45.00;;;;;;5085668;27;47071;-46
2021/01/02 11:41:35;;;;;;;13.05;4.60;;;23.60;45.00;;;;;;5067382;27;45659;-55
2021/01/02 11:44:01;;;;;;;8.88;4.25;;;23.70;45.70;;;;;;5074254;27;45531;-48
2021/01/02 11:46:28;;;;;;;12.77;4.15;;;23.70;46.60;;;;;;5060985;28;45470;-49
2021/01/02 11:48:54;;;;;;;9.82;4.03;;;23.70;46.50;;;;;;5061757;28;46057;-48
2021/01/02 11:51:20;;;;;;;11.52;4.32;;;23.70;46.50;;;;;;5060995;27;45359;-48
2021/01/02 11:53:45;;;;;;;16.20;4.50;;;23.70;46.80;;;;;;5074019;27;45473;-48
2021/01/02 11:56:11;;;;;;;9.27;4.55;;;23.70;46.90;;;;;;5072511;27;45461;-49
2021/01/02 11:58:37;;;;;;;11.32;3.72;;;23.70;47.20;;;;;;5089010;27;45478;-48
2021/01/02 12:01:02;;;;;;;12.77;4.95;;;23.70;47.10;;;;;;5073510;27;45547;-48
2021/01/02 12:03:28;;;;;;;7.95;4.40;;;23.60;47.60;;;;;;5053111;28;45439;-48
2021/01/02 12:05:54;;;;;;;8.73;4.68;;;23.60;47.50;;;;;;5052428;28;45360;-48
2021/01/02 12:08:19;;;;;;;10.02;4.75;;;23.50;47.50;;;;;;5074732;27;45921;-48
2021/01/02 12:10:45;;;;;;;7.55;3.83;;;23.50;47.20;;;;;;5081882;27;45441;-48
2021/01/02 12:13:12;;;;;;;9.48;4.00;;;23.50;47.70;;;;;;5093321;27;45371;-49
2021/01/02 12:15:37;;;;;;;11.85;4.25;;;23.40;48.00;;;;;;5109899;27;45377;-48
2021/01/02 12:18:03;;;;;;;9.10;4.13;;;23.40;48.10;;;;;;5052819;28;45926;-48
2021/01/02 12:20:29;;;;;;;8.38;4.28;;;23.40;48.40;;;;;;5089469;28;45366;-48
2021/01/02 12:22:54;;;;;;;9.07;3.88;;;23.30;48.40;;;;;;5073344;28;45533;-48
2021/01/02 12:25:21;;;;;;;8.00;4.20;;;23.30;48.60;;;;;;5073309;28;45277;-49
2021/01/02 12:27:47;;;;;;;6.25;3.70;;;23.30;48.80;;;;;;5073004;28;46497;-49
2021/01/02 12:30:13;;;;;;;6.88;4.47;;;23.20;48.70;;;;;;5072799;28;45354;-48
2021/01/02 12:32:39;;;;;;;14.35;4.63;;;23.20;48.80;;;;;;5072529;28;45341;-49
2021/01/02 12:35:05;;;;;;;8.80;4.10;;;23.20;49.00;;;;;;5070104;28;45346;-48
2021/01/02 12:37:31;;;;;;;6.25;4.18;;;23.20;49.00;;;;;;5059618;28;45347;-49
2021/01/02 12:39:56;;;;;;;9.15;4.28;;;23.20;49.10;;;;;;5067642;27;45411;-48
2021/01/02 12:42:22;;;;;;;6.53;3.90;;;23.10;49.10;;;;;;5093314;27;45365;-49
2021/01/02 12:44:49;;;;;;;7.63;3.70;;;23.10;49.10;;;;;;5094264;27;45189;-49
2021/01/02 12:47:16;;;;;;;7.13;3.72;;;23.20;49.20;;;;;;5072715;28;46237;-48
2021/01/02 12:49:43;;;;;;;8.57;3.70;;;23.10;49.20;;;;;;5072277;27;45355;-48
2021/01/02 12:52:08;;;;;;;9.45;4.43;;;23.10;49.20;;;;;;5052604;28;45329;-48